sensor_id;sensor_type;location;lat;lon;timestamp;pressure;altitude;pressure_sealevel;temperature;humidity
22753;BME280;11543;43.144;24.684;2022-11-20T00:01:16;98170.59;;;12.26;77.00
22753;BME280;11543;43.144;24.684;2022-11-20T00:03:42;98171.97;;;12.22;77.18
22753;BME280;11543;43.144;24.684;2022-11-20T00:06:10;98184.41;;;12.23;77.24
22753;BME280;11543;43.144;24.684;2022-11-20T00:08:36;98145.34;;;11.89;77.24
22753;BME280;11543;43.144;24.684;2022-11-20T00:11:14;98162.78;;;11.93;77.89
22753;BME280;11543;43.144;24.684;2022-11-20T00:13:39;98150.00;;;11.95;77.84
22753;BME280;11543;43.144;24.684;2022-11-20T00:16:06;98158.00;;;12.03;78.00
22753;BME280;11543;43.144;24.684;2022-11-20T00:18:33;98144.25;;;11.98;77.91
22753;BME280;11543;43.144;24.684;2022-11-20T00:21:04;98151.91;;;12.09;77.78
22753;BME280;11543;43.144;24.684;2022-11-20T00:23:30;98142.81;;;12.10;77.68
22753;BME280;11543;43.144;24.684;2022-11-20T00:25:55;98149.16;;;11.95;77.21
22753;BME280;11543;43.144;24.684;2022-11-20T00:28:21;98152.13;;;11.77;76.89
22753;BME280;11543;43.144;24.684;2022-11-20T00:30:46;98164.06;;;11.74;77.08
22753;BME280;11543;43.144;24.684;2022-11-20T00:33:12;98155.25;;;11.66;77.55
22753;BME280;11543;43.144;24.684;2022-11-20T00:35:37;98145.16;;;11.68;78.02
22753;BME280;11543;43.144;24.684;2022-11-20T00:38:02;98145.78;;;11.78;78.02
22753;BME280;11543;43.144;24.684;2022-11-20T00:40:28;98171.06;;;11.61;77.94
22753;BME280;11543;43.144;24.684;2022-11-20T00:42:53;98166.44;;;11.46;78.11
22753;BME280;11543;43.144;24.684;2022-11-20T00:45:19;98157.81;;;11.28;77.63
22753;BME280;11543;43.144;24.684;2022-11-20T00:47:44;98137.03;;;11.22;78.29
22753;BME280;11543;43.144;24.684;2022-11-20T00:50:09;98152.72;;;11.41;79.04
22753;BME280;11543;43.144;24.684;2022-11-20T00:52:35;98155.34;;;11.49;79.27
22753;BME280;11543;43.144;24.684;2022-11-20T00:55:00;98132.28;;;11.32;78.89
22753;BME280;11543;43.144;24.684;2022-11-20T00:57:25;98131.66;;;11.22;79.09
22753;BME280;11543;43.144;24.684;2022-11-20T00:59:51;98128.66;;;11.17;79.00
22753;BME280;11543;43.144;24.684;2022-11-20T01:02:16;98154.13;;;11.29;79.07
22753;BME280;11543;43.144;24.684;2022-11-20T01:04:42;98133.31;;;11.23;79.09
22753;BME280;11543;43.144;24.684;2022-11-20T01:07:08;98154.38;;;11.42;79.15
22753;BME280;11543;43.144;24.684;2022-11-20T01:09:33;98146.63;;;11.47;79.09
22753;BME280;11543;43.144;24.684;2022-11-20T01:11:59;98134.09;;;11.40;79.33
22753;BME280;11543;43.144;24.684;2022-11-20T01:14:25;98118.81;;;11.40;79.02
22753;BME280;11543;43.144;24.684;2022-11-20T01:16:51;98138.63;;;11.39;79.22
22753;BME280;11543;43.144;24.684;2022-11-20T01:19:20;98144.06;;;11.31;79.00
22753;BME280;11543;43.144;24.684;2022-11-20T01:21:49;98147.00;;;11.44;79.30
22753;BME280;11543;43.144;24.684;2022-11-20T01:24:17;98140.19;;;11.57;79.64
22753;BME280;11543;43.144;24.684;2022-11-20T01:26:44;98135.78;;;11.64;79.26
22753;BME280;11543;43.144;24.684;2022-11-20T01:29:24;98137.63;;;11.63;79.23
22753;BME280;11543;43.144;24.684;2022-11-20T01:31:50;98144.50;;;11.66;79.08
22753;BME280;11543;43.144;24.684;2022-11-20T01:34:18;98126.69;;;11.65;78.87
22753;BME280;11543;43.144;24.684;2022-11-20T01:36:45;98131.84;;;11.74;78.47
22753;BME280;11543;43.144;24.684;2022-11-20T01:39:16;98132.00;;;11.73;77.96
22753;BME280;11543;43.144;24.684;2022-11-20T01:41:42;98127.66;;;11.72;78.18
22753;BME280;11543;43.144;24.684;2022-11-20T01:50:03;98135.69;;;11.80;77.72
22753;BME280;11543;43.144;24.684;2022-11-20T01:52:37;98128.97;;;11.76;77.58
22753;BME280;11543;43.144;24.684;2022-11-20T01:55:26;98121.31;;;11.65;77.85
22753;BME280;11543;43.144;24.684;2022-11-20T01:57:54;98115.00;;;11.58;78.00
22753;BME280;11543;43.144;24.684;2022-11-20T02:00:20;98109.25;;;11.61;77.73
22753;BME280;11543;43.144;24.684;2022-11-20T02:02:51;98103.53;;;11.64;77.62
22753;BME280;11543;43.144;24.684;2022-11-20T02:05:43;98103.53;;;11.64;77.67
22753;BME280;11543;43.144;24.684;2022-11-20T02:08:10;98095.84;;;11.61;77.48
22753;BME280;11543;43.144;24.684;2022-11-20T02:10:36;98087.78;;;11.61;77.43
22753;BME280;11543;43.144;24.684;2022-11-20T02:13:03;98067.38;;;11.52;77.15
22753;BME280;11543;43.144;24.684;2022-11-20T02:15:47;98072.38;;;11.32;77.17
22753;BME280;11543;43.144;24.684;2022-11-20T02:18:15;98053.84;;;11.14;77.09
22753;BME280;11543;43.144;24.684;2022-11-20T02:20:46;98061.00;;;10.99;76.93
22753;BME280;11543;43.144;24.684;2022-11-20T02:23:20;98039.25;;;10.85;77.11
22753;BME280;11543;43.144;24.684;2022-11-20T02:25:50;98025.63;;;10.64;77.95
22753;BME280;11543;43.144;24.684;2022-11-20T02:28:18;98038.00;;;10.73;78.96
22753;BME280;11543;43.144;24.684;2022-11-20T02:30:43;98026.88;;;10.84;79.18
22753;BME280;11543;43.144;24.684;2022-11-20T02:33:09;98006.94;;;10.79;79.35
22753;BME280;11543;43.144;24.684;2022-11-20T02:38:02;98021.75;;;10.98;79.45
22753;BME280;11543;43.144;24.684;2022-11-20T02:40:28;98004.69;;;10.91;79.77
22753;BME280;11543;43.144;24.684;2022-11-20T02:42:54;98014.72;;;10.97;79.47
22753;BME280;11543;43.144;24.684;2022-11-20T02:45:21;98014.72;;;10.97;79.24
22753;BME280;11543;43.144;24.684;2022-11-20T02:47:47;98014.75;;;10.89;79.30
22753;BME280;11543;43.144;24.684;2022-11-20T02:50:13;98003.13;;;10.73;79.73
22753;BME280;11543;43.144;24.684;2022-11-20T02:52:38;98009.22;;;10.90;79.53
22753;BME280;11543;43.144;24.684;2022-11-20T02:55:04;98010.84;;;10.99;80.09
22753;BME280;11543;43.144;24.684;2022-11-20T02:57:30;98009.75;;;11.08;80.29
22753;BME280;11543;43.144;24.684;2022-11-20T02:59:55;98002.19;;;11.12;80.06
22753;BME280;11543;43.144;24.684;2022-11-20T03:02:21;98012.94;;;11.12;80.13
22753;BME280;11543;43.144;24.684;2022-11-20T03:04:46;98018.88;;;11.22;79.70
22753;BME280;11543;43.144;24.684;2022-11-20T03:07:12;97991.09;;;11.15;79.62
22753;BME280;11543;43.144;24.684;2022-11-20T03:09:37;98004.63;;;11.22;79.76
22753;BME280;11543;43.144;24.684;2022-11-20T03:12:03;98018.50;;;11.33;79.42
22753;BME280;11543;43.144;24.684;2022-11-20T03:14:28;98015.44;;;11.36;79.40
22753;BME280;11543;43.144;24.684;2022-11-20T03:16:55;98017.97;;;11.38;79.13
22753;BME280;11543;43.144;24.684;2022-11-20T03:19:20;97999.50;;;11.12;78.98
22753;BME280;11543;43.144;24.684;2022-11-20T03:21:45;98037.75;;;11.14;78.83
22753;BME280;11543;43.144;24.684;2022-11-20T03:24:12;98025.66;;;10.87;78.55
22753;BME280;11543;43.144;24.684;2022-11-20T03:26:38;98038.00;;;10.73;78.79
22753;BME280;11543;43.144;24.684;2022-11-20T03:29:04;98063.19;;;10.64;78.85
22753;BME280;11543;43.144;24.684;2022-11-20T03:31:35;98107.94;;;10.64;78.00
22753;BME280;11543;43.144;24.684;2022-11-20T03:34:02;98115.84;;;10.57;78.14
22753;BME280;11543;43.144;24.684;2022-11-20T03:36:29;98103.81;;;10.37;78.73
22753;BME280;11543;43.144;24.684;2022-11-20T03:38:55;98132.00;;;10.41;79.79
22753;BME280;11543;43.144;24.684;2022-11-20T03:41:23;98145.72;;;10.46;80.84
22753;BME280;11543;43.144;24.684;2022-11-20T03:43:55;98161.13;;;10.52;82.83
22753;BME280;11543;43.144;24.684;2022-11-20T03:46:21;98186.09;;;10.52;83.67
22753;BME280;11543;43.144;24.684;2022-11-20T03:48:48;98196.66;;;10.54;84.34
22753;BME280;11543;43.144;24.684;2022-11-20T03:53:42;98195.50;;;10.40;85.67
22753;BME280;11543;43.144;24.684;2022-11-20T03:56:08;98203.38;;;10.50;85.87
22753;BME280;11543;43.144;24.684;2022-11-20T03:58:37;98230.16;;;10.66;86.07
22753;BME280;11543;43.144;24.684;2022-11-20T04:01:10;98218.75;;;10.64;86.94
22753;BME280;11543;43.144;24.684;2022-11-20T04:03:37;98216.59;;;10.60;87.88
22753;BME280;11543;43.144;24.684;2022-11-20T04:06:08;98193.28;;;10.68;87.60
22753;BME280;11543;43.144;24.684;2022-11-20T04:08:35;98209.91;;;10.56;88.13
22753;BME280;11543;43.144;24.684;2022-11-20T04:13:35;98221.13;;;10.59;89.33
22753;BME280;11543;43.144;24.684;2022-11-20T04:16:01;98241.25;;;10.55;89.11
22753;BME280;11543;43.144;24.684;2022-11-20T04:18:26;98220.63;;;10.47;88.85
22753;BME280;11543;43.144;24.684;2022-11-20T04:20:51;98231.53;;;10.30;89.62
22753;BME280;11543;43.144;24.684;2022-11-20T04:23:17;98250.28;;;10.38;90.17
22753;BME280;11543;43.144;24.684;2022-11-20T04:25:42;98220.44;;;10.08;90.48
22753;BME280;11543;43.144;24.684;2022-11-20T04:28:07;98232.81;;;9.93;91.87
22753;BME280;11543;43.144;24.684;2022-11-20T04:30:33;98240.19;;;9.99;92.68
22753;BME280;11543;43.144;24.684;2022-11-20T04:32:58;98241.22;;;10.06;92.59
22753;BME280;11543;43.144;24.684;2022-11-20T04:35:24;98262.34;;;10.26;92.46
22753;BME280;11543;43.144;24.684;2022-11-20T04:37:51;98239.22;;;10.25;92.26
22753;BME280;11543;43.144;24.684;2022-11-20T04:40:17;98259.00;;;10.56;91.43
22753;BME280;11543;43.144;24.684;2022-11-20T04:42:43;98240.91;;;10.58;91.01
22753;BME280;11543;43.144;24.684;2022-11-20T04:45:08;98233.84;;;10.73;90.36
22753;BME280;11543;43.144;24.684;2022-11-20T04:47:34;98238.84;;;10.84;89.57
22753;BME280;11543;43.144;24.684;2022-11-20T04:49:59;98266.94;;;11.13;88.65
22753;BME280;11543;43.144;24.684;2022-11-20T04:52:25;98267.22;;;11.26;87.81
22753;BME280;11543;43.144;24.684;2022-11-20T04:54:50;98273.28;;;11.28;87.33
22753;BME280;11543;43.144;24.684;2022-11-20T04:57:18;98256.16;;;11.29;86.89
22753;BME280;11543;43.144;24.684;2022-11-20T04:59:43;98249.28;;;11.35;86.55
22753;BME280;11543;43.144;24.684;2022-11-20T05:02:09;98270.19;;;11.47;86.29
22753;BME280;11543;43.144;24.684;2022-11-20T05:04:35;98263.63;;;11.50;85.93
22753;BME280;11543;43.144;24.684;2022-11-20T05:07:00;98237.00;;;11.40;85.45
22753;BME280;11543;43.144;24.684;2022-11-20T05:09:26;98244.84;;;11.50;85.29
22753;BME280;11543;43.144;24.684;2022-11-20T05:11:51;98279.84;;;11.65;85.14
22753;BME280;11543;43.144;24.684;2022-11-20T05:14:17;98285.75;;;11.60;84.89
22753;BME280;11543;43.144;24.684;2022-11-20T05:16:42;98292.03;;;11.44;84.12
22753;BME280;11543;43.144;24.684;2022-11-20T05:19:07;98298.28;;;11.21;84.37
22753;BME280;11543;43.144;24.684;2022-11-20T05:21:33;98302.56;;;10.82;86.26
22753;BME280;11543;43.144;24.684;2022-11-20T05:23:58;98311.66;;;10.65;88.10
22753;BME280;11543;43.144;24.684;2022-11-20T05:26:24;98292.22;;;10.55;89.32
22753;BME280;11543;43.144;24.684;2022-11-20T05:28:50;98299.41;;;10.71;89.54
22753;BME280;11543;43.144;24.684;2022-11-20T05:31:24;98307.63;;;10.69;89.43
22753;BME280;11543;43.144;24.684;2022-11-20T05:33:49;98298.38;;;10.80;89.51
22753;BME280;11543;43.144;24.684;2022-11-20T05:36:15;98306.25;;;10.98;89.34
22753;BME280;11543;43.144;24.684;2022-11-20T05:38:41;98300.84;;;11.14;89.21
22753;BME280;11543;43.144;24.684;2022-11-20T05:41:12;98302.84;;;11.28;88.91
22753;BME280;11543;43.144;24.684;2022-11-20T05:43:40;98305.50;;;11.36;88.91
22753;BME280;11543;43.144;24.684;2022-11-20T05:46:08;98286.75;;;11.12;88.84
22753;BME280;11543;43.144;24.684;2022-11-20T05:48:34;98338.69;;;11.43;88.34
22753;BME280;11543;43.144;24.684;2022-11-20T05:51:01;98315.19;;;11.45;87.94
22753;BME280;11543;43.144;24.684;2022-11-20T05:53:27;98320.34;;;11.55;87.54
22753;BME280;11543;43.144;24.684;2022-11-20T05:56:13;98336.28;;;11.65;87.61
22753;BME280;11543;43.144;24.684;2022-11-20T05:58:39;98331.91;;;11.64;87.07
22753;BME280;11543;43.144;24.684;2022-11-20T06:01:09;98340.94;;;11.71;87.10
22753;BME280;11543;43.144;24.684;2022-11-20T06:03:35;98336.91;;;11.75;86.62
22753;BME280;11543;43.144;24.684;2022-11-20T06:06:01;98346.81;;;11.74;86.48
22753;BME280;11543;43.144;24.684;2022-11-20T06:08:27;98352.03;;;11.68;86.26
22753;BME280;11543;43.144;24.684;2022-11-20T06:10:53;98376.13;;;11.53;86.81
22753;BME280;11543;43.144;24.684;2022-11-20T06:13:18;98365.06;;;11.24;88.54
22753;BME280;11543;43.144;24.684;2022-11-20T06:15:50;98384.41;;;11.27;89.64
22753;BME280;11543;43.144;24.684;2022-11-20T06:18:16;98372.66;;;11.28;89.77
22753;BME280;11543;43.144;24.684;2022-11-20T06:20:41;98370.94;;;11.43;89.85
22753;BME280;11543;43.144;24.684;2022-11-20T06:23:07;98357.00;;;11.48;89.62
22753;BME280;11543;43.144;24.684;2022-11-20T06:25:32;98357.75;;;11.65;89.45
22753;BME280;11543;43.144;24.684;2022-11-20T06:27:58;98376.91;;;11.70;89.45
22753;BME280;11543;43.144;24.684;2022-11-20T06:30:24;98376.53;;;11.73;89.28
22753;BME280;11543;43.144;24.684;2022-11-20T06:32:49;98388.63;;;11.77;89.06
22753;BME280;11543;43.144;24.684;2022-11-20T06:35:14;98399.06;;;11.80;89.27
22753;BME280;11543;43.144;24.684;2022-11-20T06:37:40;98408.75;;;11.89;89.30
22753;BME280;11543;43.144;24.684;2022-11-20T06:40:07;98396.38;;;11.72;89.19
22753;BME280;11543;43.144;24.684;2022-11-20T06:42:32;98377.28;;;11.51;90.06
22753;BME280;11543;43.144;24.684;2022-11-20T06:44:58;98425.13;;;11.63;90.04
22753;BME280;11543;43.144;24.684;2022-11-20T06:47:23;98408.88;;;11.40;90.61
22753;BME280;11543;43.144;24.684;2022-11-20T06:49:49;98437.72;;;11.55;90.83
22753;BME280;11543;43.144;24.684;2022-11-20T06:52:14;98432.03;;;11.41;91.41
22753;BME280;11543;43.144;24.684;2022-11-20T06:54:39;98448.84;;;11.35;91.93
22753;BME280;11543;43.144;24.684;2022-11-20T06:57:05;98456.22;;;11.33;92.35
22753;BME280;11543;43.144;24.684;2022-11-20T06:59:30;98439.09;;;11.42;92.52
22753;BME280;11543;43.144;24.684;2022-11-20T07:01:56;98438.41;;;11.57;92.16
22753;BME280;11543;43.144;24.684;2022-11-20T07:04:21;98457.00;;;11.66;91.98
22753;BME280;11543;43.144;24.684;2022-11-20T07:06:48;98439.53;;;11.78;91.78
22753;BME280;11543;43.144;24.684;2022-11-20T07:09:15;98419.72;;;11.79;91.28
22753;BME280;11543;43.144;24.684;2022-11-20T07:11:42;98427.97;;;11.78;91.46
22753;BME280;11543;43.144;24.684;2022-11-20T07:14:08;98440.31;;;11.95;91.61
22753;BME280;11543;43.144;24.684;2022-11-20T07:16:37;98449.19;;;12.04;91.12
22753;BME280;11543;43.144;24.684;2022-11-20T07:19:02;98448.75;;;11.84;91.18
22753;BME280;11543;43.144;24.684;2022-11-20T07:21:28;98448.78;;;11.68;91.04
22753;BME280;11543;43.144;24.684;2022-11-20T07:23:53;98436.00;;;11.70;91.15
22753;BME280;11543;43.144;24.684;2022-11-20T07:26:19;98441.38;;;11.86;90.76
22753;BME280;11543;43.144;24.684;2022-11-20T07:28:45;98454.47;;;11.81;90.95
22753;BME280;11543;43.144;24.684;2022-11-20T07:31:11;98422.41;;;11.71;91.56
22753;BME280;11543;43.144;24.684;2022-11-20T07:33:38;98412.16;;;11.75;91.29
22753;BME280;11543;43.144;24.684;2022-11-20T07:36:04;98420.84;;;11.93;91.01
22753;BME280;11543;43.144;24.684;2022-11-20T07:38:30;98431.75;;;12.00;90.99
22753;BME280;11543;43.144;24.684;2022-11-20T07:40:57;98436.41;;;12.14;90.91
22753;BME280;11543;43.144;24.684;2022-11-20T07:43:24;98416.41;;;12.17;90.58
22753;BME280;11543;43.144;24.684;2022-11-20T07:45:50;98427.78;;;12.27;90.34
22753;BME280;11543;43.144;24.684;2022-11-20T07:48:16;98417.38;;;12.24;90.43
22753;BME280;11543;43.144;24.684;2022-11-20T07:50:41;98415.13;;;12.35;90.43
22753;BME280;11543;43.144;24.684;2022-11-20T07:53:07;98426.97;;;12.49;89.91
22753;BME280;11543;43.144;24.684;2022-11-20T07:55:35;98418.59;;;12.44;89.71
22753;BME280;11543;43.144;24.684;2022-11-20T07:58:03;98446.25;;;12.61;89.13
22753;BME280;11543;43.144;24.684;2022-11-20T08:00:28;98443.38;;;12.62;89.22
22753;BME280;11543;43.144;24.684;2022-11-20T08:02:54;98448.06;;;12.68;89.04
22753;BME280;11543;43.144;24.684;2022-11-20T08:05:20;98439.31;;;12.66;88.97
22753;BME280;11543;43.144;24.684;2022-11-20T08:07:45;98412.63;;;12.57;89.04
22753;BME280;11543;43.144;24.684;2022-11-20T08:10:13;98441.13;;;12.74;88.92
22753;BME280;11543;43.144;24.684;2022-11-20T08:12:48;98409.53;;;12.68;88.70
22753;BME280;11543;43.144;24.684;2022-11-20T08:15:33;98421.50;;;12.65;88.63
22753;BME280;11543;43.144;24.684;2022-11-20T08:18:03;98419.81;;;12.64;88.88
22753;BME280;11543;43.144;24.684;2022-11-20T08:20:29;98406.31;;;12.72;88.71
22753;BME280;11543;43.144;24.684;2022-11-20T08:23:02;98398.16;;;12.81;88.49
22753;BME280;11543;43.144;24.684;2022-11-20T08:25:29;98375.09;;;12.63;88.51
22753;BME280;11543;43.144;24.684;2022-11-20T08:28:05;98421.59;;;12.95;88.54
22753;BME280;11543;43.144;24.684;2022-11-20T08:30:31;98429.97;;;13.00;88.39
22753;BME280;11543;43.144;24.684;2022-11-20T08:33:08;98427.25;;;13.08;88.42
22753;BME280;11543;43.144;24.684;2022-11-20T08:35:34;98410.03;;;13.17;88.35
22753;BME280;11543;43.144;24.684;2022-11-20T08:38:02;98414.31;;;13.26;88.04
22753;BME280;11543;43.144;24.684;2022-11-20T08:40:27;98411.09;;;13.31;87.89
22753;BME280;11543;43.144;24.684;2022-11-20T08:42:53;98421.97;;;13.37;87.89
22753;BME280;11543;43.144;24.684;2022-11-20T08:45:19;98411.47;;;13.43;87.69
22753;BME280;11543;43.144;24.684;2022-11-20T08:47:50;98403.97;;;13.53;87.29
22753;BME280;11543;43.144;24.684;2022-11-20T08:50:16;98403.13;;;13.67;87.05
22753;BME280;11543;43.144;24.684;2022-11-20T08:52:43;98397.66;;;13.75;86.57
22753;BME280;11543;43.144;24.684;2022-11-20T08:55:09;98401.91;;;13.84;86.55
22753;BME280;11543;43.144;24.684;2022-11-20T08:57:36;98405.75;;;13.90;86.47
22753;BME280;11543;43.144;24.684;2022-11-20T09:00:04;98398.03;;;14.01;86.31
22753;BME280;11543;43.144;24.684;2022-11-20T09:02:30;98391.13;;;14.14;86.00
22753;BME280;11543;43.144;24.684;2022-11-20T09:04:56;98382.09;;;14.21;85.40
22753;BME280;11543;43.144;24.684;2022-11-20T09:07:21;98398.34;;;14.28;85.40
22753;BME280;11543;43.144;24.684;2022-11-20T09:09:49;98379.09;;;14.31;85.42
22753;BME280;11543;43.144;24.684;2022-11-20T09:12:15;98374.41;;;14.40;84.68
22753;BME280;11543;43.144;24.684;2022-11-20T09:14:40;98363.72;;;14.46;83.94
22753;BME280;11543;43.144;24.684;2022-11-20T09:17:06;98337.59;;;14.32;83.75
22753;BME280;11543;43.144;24.684;2022-11-20T09:19:33;98333.28;;;14.38;83.47
22753;BME280;11543;43.144;24.684;2022-11-20T09:21:58;98354.47;;;14.55;83.52
22753;BME280;11543;43.144;24.684;2022-11-20T09:24:27;98339.94;;;14.56;82.99
22753;BME280;11543;43.144;24.684;2022-11-20T09:26:53;98311.22;;;14.49;83.00
22753;BME280;11543;43.144;24.684;2022-11-20T09:29:18;98332.09;;;14.61;82.81
22753;BME280;11543;43.144;24.684;2022-11-20T09:31:45;98338.91;;;14.57;82.87
22753;BME280;11543;43.144;24.684;2022-11-20T09:34:12;98341.34;;;14.52;82.95
22753;BME280;11543;43.144;24.684;2022-11-20T09:36:37;98342.63;;;14.56;82.72
22753;BME280;11543;43.144;24.684;2022-11-20T09:39:03;98349.72;;;14.57;82.74
22753;BME280;11543;43.144;24.684;2022-11-20T09:50:19;98342.25;;;14.59;82.45
22753;BME280;11543;43.144;24.684;2022-11-20T09:53:04;98341.88;;;14.62;82.35
22753;BME280;11543;43.144;24.684;2022-11-20T09:55:33;98346.88;;;14.65;82.26
22753;BME280;11543;43.144;24.684;2022-11-20T09:58:01;98332.34;;;14.66;81.94
22753;BME280;11543;43.144;24.684;2022-11-20T10:00:30;98319.81;;;14.59;81.69
22753;BME280;11543;43.144;24.684;2022-11-20T10:06:03;98322.09;;;14.77;81.64
22753;BME280;11543;43.144;24.684;2022-11-20T10:08:56;98333.78;;;14.84;81.57
22753;BME280;11543;43.144;24.684;2022-11-20T10:11:33;98331.53;;;14.87;81.65
22753;BME280;11543;43.144;24.684;2022-11-20T10:24:56;98296.16;;;15.10;80.81
22753;BME280;11543;43.144;24.684;2022-11-20T10:27:38;98298.06;;;15.16;81.06
22753;BME280;11543;43.144;24.684;2022-11-20T10:30:12;98300.38;;;15.19;81.13
22753;BME280;11543;43.144;24.684;2022-11-20T10:32:52;98292.09;;;15.21;81.39
22753;BME280;11543;43.144;24.684;2022-11-20T10:35:26;98313.75;;;15.27;81.22
22753;BME280;11543;43.144;24.684;2022-11-20T10:37:58;98314.56;;;15.28;81.00
22753;BME280;11543;43.144;24.684;2022-11-20T10:46:34;98331.13;;;15.18;79.90
22753;BME280;11543;43.144;24.684;2022-11-20T10:49:09;98336.53;;;15.18;79.00
22753;BME280;11543;43.144;24.684;2022-11-20T10:54:53;98353.69;;;15.04;78.29
22753;BME280;11543;43.144;24.684;2022-11-20T11:00:24;98357.06;;;14.85;79.22
22753;BME280;11543;43.144;24.684;2022-11-20T11:02:51;98353.28;;;14.79;79.97
22753;BME280;11543;43.144;24.684;2022-11-20T11:08:03;98349.84;;;14.71;80.82
22753;BME280;11543;43.144;24.684;2022-11-20T11:10:52;98339.81;;;14.64;81.54
22753;BME280;11543;43.144;24.684;2022-11-20T11:13:27;98366.03;;;14.71;82.41
22753;BME280;11543;43.144;24.684;2022-11-20T11:15:53;98364.75;;;14.66;82.42
22753;BME280;11543;43.144;24.684;2022-11-20T11:18:29;98365.53;;;14.60;82.97
22753;BME280;11543;43.144;24.684;2022-11-20T11:20:56;98348.44;;;14.53;83.28
22753;BME280;11543;43.144;24.684;2022-11-20T11:23:42;98355.56;;;14.61;83.40
22753;BME280;11543;43.144;24.684;2022-11-20T11:26:37;98359.75;;;14.63;83.34
22753;BME280;11543;43.144;24.684;2022-11-20T11:29:03;98353.06;;;14.59;83.53
22753;BME280;11543;43.144;24.684;2022-11-20T11:31:34;98340.19;;;14.61;83.38
22753;BME280;11543;43.144;24.684;2022-11-20T11:34:06;98343.22;;;14.73;83.35
22753;BME280;11543;43.144;24.684;2022-11-20T11:36:33;98346.94;;;14.72;83.51
22753;BME280;11543;43.144;24.684;2022-11-20T11:39:00;98334.03;;;14.68;83.59
22753;BME280;11543;43.144;24.684;2022-11-20T11:41:30;98348.31;;;14.83;83.47
22753;BME280;11543;43.144;24.684;2022-11-20T11:44:01;98344.19;;;14.87;83.37
22753;BME280;11543;43.144;24.684;2022-11-20T11:46:55;98329.03;;;14.86;83.29
22753;BME280;11543;43.144;24.684;2022-11-20T11:49:21;98325.94;;;14.89;83.17
22753;BME280;11543;43.144;24.684;2022-11-20T12:00:02;98299.41;;;14.99;82.39
22753;BME280;11543;43.144;24.684;2022-11-20T12:02:49;98291.06;;;14.94;82.45
22753;BME280;11543;43.144;24.684;2022-11-20T12:05:26;98289.41;;;14.93;82.80
22753;BME280;11543;43.144;24.684;2022-11-20T12:15:58;98285.66;;;14.94;82.90
22753;BME280;11543;43.144;24.684;2022-11-20T12:18:23;98276.09;;;14.91;82.71
22753;BME280;11543;43.144;24.684;2022-11-20T12:50:32;98271.75;;;14.97;83.80
22753;BME280;11543;43.144;24.684;2022-11-20T12:53:18;98274.81;;;14.87;83.83
22753;BME280;11543;43.144;24.684;2022-11-20T12:55:59;98282.28;;;14.85;84.07
22753;BME280;11543;43.144;24.684;2022-11-20T13:01:37;98338.41;;;14.69;84.89
22753;BME280;11543;43.144;24.684;2022-11-20T13:06:46;98421.66;;;13.99;89.67
22753;BME280;11543;43.144;24.684;2022-11-20T13:09:14;98419.75;;;13.56;92.28
22753;BME280;11543;43.144;24.684;2022-11-20T13:14:19;98434.53;;;13.45;94.95
22753;BME280;11543;43.144;24.684;2022-11-20T13:17:10;98395.03;;;13.37;95.05
22753;BME280;11543;43.144;24.684;2022-11-20T13:19:38;98396.91;;;13.52;94.65
22753;BME280;11543;43.144;24.684;2022-11-20T13:22:04;98395.41;;;13.64;94.59
22753;BME280;11543;43.144;24.684;2022-11-20T13:24:31;98386.69;;;13.62;94.68
22753;BME280;11543;43.144;24.684;2022-11-20T13:29:35;98417.00;;;13.93;94.13
22753;BME280;11543;43.144;24.684;2022-11-20T13:32:13;98414.97;;;13.95;93.44
22753;BME280;11543;43.144;24.684;2022-11-20T13:34:50;98408.91;;;14.08;93.25
22753;BME280;11543;43.144;24.684;2022-11-20T13:37:32;98369.00;;;14.03;92.39
22753;BME280;11543;43.144;24.684;2022-11-20T13:42:37;98374.19;;;14.20;91.91
22753;BME280;11543;43.144;24.684;2022-11-20T13:45:20;98360.03;;;14.18;91.88
22753;BME280;11543;43.144;24.684;2022-11-20T13:47:50;98364.56;;;14.32;90.97
22753;BME280;11543;43.144;24.684;2022-11-20T13:50:16;98374.25;;;14.26;90.95
22753;BME280;11543;43.144;24.684;2022-11-20T14:00:26;98343.63;;;14.34;90.05
22753;BME280;11543;43.144;24.684;2022-11-20T14:03:13;98360.28;;;14.38;90.01
22753;BME280;11543;43.144;24.684;2022-11-20T14:05:55;98371.44;;;14.34;90.01
22753;BME280;11543;43.144;24.684;2022-11-20T14:08:35;98362.25;;;14.29;90.14
22753;BME280;11543;43.144;24.684;2022-11-20T14:11:03;98357.22;;;14.26;89.93
22753;BME280;11543;43.144;24.684;2022-11-20T14:13:29;98351.38;;;14.22;90.00
22753;BME280;11543;43.144;24.684;2022-11-20T14:15:57;98338.34;;;14.26;90.18
22753;BME280;11543;43.144;24.684;2022-11-20T14:18:26;98337.97;;;14.29;90.09
22753;BME280;11543;43.144;24.684;2022-11-20T14:20:52;98330.00;;;14.21;90.03
22753;BME280;11543;43.144;24.684;2022-11-20T14:23:28;98313.16;;;14.19;90.16
22753;BME280;11543;43.144;24.684;2022-11-20T14:25:54;98316.56;;;14.27;89.98
22753;BME280;11543;43.144;24.684;2022-11-20T14:28:39;98334.25;;;14.30;89.91
22753;BME280;11543;43.144;24.684;2022-11-20T14:31:18;98337.78;;;14.30;89.92
22753;BME280;11543;43.144;24.684;2022-11-20T14:33:46;98336.38;;;14.34;89.88
22753;BME280;11543;43.144;24.684;2022-11-20T14:36:17;98329.09;;;14.35;89.71
22753;BME280;11543;43.144;24.684;2022-11-20T14:38:46;98314.84;;;14.41;89.55
22753;BME280;11543;43.144;24.684;2022-11-20T14:41:20;98322.19;;;14.47;89.13
22753;BME280;11543;43.144;24.684;2022-11-20T14:43:48;98325.53;;;14.49;88.81
22753;BME280;11543;43.144;24.684;2022-11-20T14:46:15;98313.75;;;14.35;88.86
22753;BME280;11543;43.144;24.684;2022-11-20T14:48:45;98293.81;;;14.37;89.06
22753;BME280;11543;43.144;24.684;2022-11-20T14:51:37;98286.75;;;14.35;89.20
22753;BME280;11543;43.144;24.684;2022-11-20T14:54:16;98285.41;;;14.25;89.01
22753;BME280;11543;43.144;24.684;2022-11-20T14:57:01;98283.22;;;14.14;89.37